Nearby Meteorological Terminal Aviation Routine Weather Reports (METAR)
KAVP - Avoca/Wilkes B., Pennsylvania, USA
Distance from station: NE 13mi, 20km
Updated: Thu, 19-Jul-2018 10:54am EDT
Clear
Clear
 Wind from calm
Wind: Calm
Temperature: 70°F , 21°C
Dew Point: 52°F , 11°C
Humidity: 53%
Barometer: 30.15 inHg , 1021 hPa
Clouds: Clear
Visibility: 10 miles , 16 km
2018/07/19 14:54 KAVP 191454Z 00000KT 10SM CLR 21/11 A3015 RMK AO2 SLP204 T02060111 50003 $
KMPO - Mt. Pocono, Pennsylvania, USA
Distance from station: ESE 28mi, 45km
Updated: Thu, 19-Jul-2018 10:53am EDT
Clear
Clear
 Wind from E
Wind: E 6 mph , 9 km/h
Temperature: 68°F , 20°C
Dew Point: 48°F , 9°C
Humidity: 49%
Barometer: 30.17 inHg , 1021.7 hPa
Clouds: Clear
Visibility: 10 miles , 16 km
2018/07/19 14:53 KMPO 191453Z AUTO 08005KT 10SM CLR 20/09 A3017 RMK AO2 SLP212 T02000094 51012
 
KABE - Allentown, Pennsylvania, USA
Distance from station: SSE 46mi, 74km
Updated: Thu, 19-Jul-2018 11:03am EDT

 
Barometer: 30.12 inHg , 1020 hPa
2018/07/19 15:03 KABE 191503Z A3012 RMK AO2 $
KXLL - Allentown Queen, Pennsylvania, USA
Distance from station: SSE 50mi, 81km
Updated: Thu, 19-Jul-2018 10:55am EDT
Clear
Clear
 Wind from ENE
Wind: ENE 3 mph , 6 km/h
Temperature: 73°F , 23°C
Dew Point: 52°F , 11°C
Humidity: 47%
Barometer: 30.14 inHg , 1020.7 hPa
Clouds: Clear
Visibility: 10 miles , 16 km
2018/07/19 14:55 KXLL 191455Z AUTO 06003KT 10SM CLR 23/11 A3014 RMK AO2
 
KIPT - Williamsport, Pennsylvania, USA
Distance from station: W 52mi, 84km
Updated: Thu, 19-Jul-2018 10:54am EDT
Clear
Clear
 Wind from SSW
Wind: SSW 3 mph , 6 km/h
Temperature: 72°F , 22°C
Dew Point: 48°F , 9°C
Humidity: 44%
Barometer: 30.13 inHg , 1020.3 hPa
Clouds: Clear
Visibility: 10 miles , 16 km
2018/07/19 14:54 KIPT 191454Z 21003KT 10SM CLR 22/09 A3013 RMK AO2 SLP200 T02170094 58002
KSEG - Selinsgrove, Pennsylvania, USA
Distance from station: WSW 57mi, 92km
Updated: Thu, 19-Jul-2018 10:53am EDT
Clear
Clear
 Wind from calm
Wind: Calm
Temperature: 73°F , 23°C
Dew Point: 52°F , 11°C
Humidity: 47%
Barometer: 30.14 inHg , 1020.7 hPa
Clouds: Clear
Visibility: 10 miles , 16 km
2018/07/19 14:53 KSEG 191453Z AUTO 00000KT 10SM CLR 23/11 A3014 RMK AO2 SLP203 T02280106 58000
 
KRDG - Reading, Pennsylvania, USA
Distance from station: S 59mi, 95km
Updated: Thu, 19-Jul-2018 10:54am EDT
Clear
Clear
 Wind from varies
Wind: varies 5 mph , 7 km/h
Temperature: 75°F , 24°C
Dew Point: 55°F , 13°C
Humidity: 50%
Barometer: 30.10 inHg , 1019.3 hPa
Clouds: Clear
Visibility: 10 miles , 16 km
2018/07/19 14:54 KRDG 191454Z VRB04KT 10SM CLR 24/13 A3010 RMK AO2 SLP196 T02390133 50003
KUKT - Quakertown Arp, Pennsylvania, USA
Distance from station: SSE 61mi, 98km
Updated: Thu, 19-Jul-2018 10:55am EDT
Clear
Clear
 Wind from varies
Wind: varies 5 mph , 7 km/h
Temperature: 73°F , 23°C
Dew Point: 54°F , 12°C
Humidity: 50%
Barometer: 30.13 inHg , 1020.3 hPa
Clouds: Clear
Visibility: 10 miles , 16 km
2018/07/19 14:55 KUKT 191455Z AUTO VRB04KT 10SM CLR 23/12 A3013 RMK A01
 
K12N - Andover, New Jersey, USA
Distance from station: ESE 63mi, 101km
Updated: Thu, 19-Jul-2018 10:54am EDT

 Wind from N
Wind: N 6 mph , 9 km/h
Temperature: 73°F , 23°C
Dew Point: 55°F , 13°C
Humidity: 53%
Barometer: 30.13 inHg , 1020.3 hPa
2018/07/19 14:54 K12N 191454Z AUTO 35005KT 23/13 A3013 RMK AO1 SLP198 T02330133 51007
KMUI - Muir Aaf/Indiant, Pennsylvania, USA
Distance from station: SSW 65mi, 105km
Updated: Thu, 19-Jul-2018 10:56am EDT
Clear
Clear
 Wind from calm
Wind: Calm
Temperature: 73°F , 23°C
Dew Point: 48°F , 9°C
Humidity: 41%
Barometer: 30.13 inHg , 1020.3 hPa
Clouds: Clear
Visibility: 10 miles , 16 km
2018/07/19 14:56 KMUI 191456Z 00000KT 10SM CLR 23/09 A3013 RMK AO2A SLP204 T02330093
 
KFWN - Sussex, New Jersey, USA
Distance from station: E 66mi, 107km
Updated: Thu, 19-Jul-2018 10:53am EDT
Clear
Clear
 Wind from varies
Wind: varies 6 mph , 9 km/h
Temperature: 73°F , 23°C
Dew Point: 54°F , 12°C
Humidity: 50%
Barometer: 30.13 inHg , 1020.3 hPa
Clouds: Clear
Visibility: 10 miles , 16 km
2018/07/19 14:53 KFWN 191453Z AUTO VRB05KT 10SM CLR 23/12 A3013 RMK AO2 SLP202 T02280122 51007
KMSV - Monticello, New York, USA
Distance from station: ENE 67mi, 108km
Updated: Thu, 19-Jul-2018 10:56am EDT

 
2018/07/19 14:56 KMSV 191456Z AUTO RMK AO2 SLPNO 6//// PWINO FZRANO RVRNO $
 
KBGM - Binghamton, New York, USA
Distance from station: N 69mi, 111km
Updated: Thu, 19-Jul-2018 10:53am EDT
Clear
Clear
 Wind from varies
Wind: varies 5 mph , 7 km/h
Temperature: 66°F , 19°C
Dew Point: 46°F , 8°C
Humidity: 49%
Barometer: 30.16 inHg , 1021.3 hPa
Clouds: Clear
Visibility: 10 miles , 16 km
2018/07/19 14:53 KBGM 191453Z VRB04KT 10SM CLR 19/08 A3016 RMK AO2 SLP208 T01940083 51008
KPTW - Pottstown, Pennsylvania, USA
Distance from station: SSE 71mi, 114km
Updated: Thu, 19-Jul-2018 10:54am EDT
Clear
Clear
 Wind from varies
Wind: varies 3 mph , 6 km/h
Temperature: 72°F , 22°C
Dew Point: 54°F , 12°C
Humidity: 53%
Barometer: 30.14 inHg , 1020.7 hPa
Clouds: Clear
Visibility: 10 miles , 16 km
2018/07/19 14:54 KPTW 191454Z AUTO VRB03KT 10SM CLR 22/12 A3014 RMK AO2 SLP201 T02220117 50008
 
KDYL - Doylestown, Pennsylvania, USA
Distance from station: SE 74mi, 119km
Updated: Thu, 19-Jul-2018 10:54am EDT
Clear
Clear
 Wind from varies
Wind: varies 5 mph , 7 km/h
Temperature: 73°F , 23°C
Dew Point: 57°F , 14°C
Humidity: 57%
Barometer: 30.12 inHg , 1020 hPa
Clouds: Clear
Visibility: 10 miles , 16 km
2018/07/19 14:54 KDYL 191454Z AUTO VRB04KT 10SM CLR 23/14 A3012 RMK AO2 SLP194 T02280139 51012
KSMQ - Somerville, New Jersey, USA
Distance from station: ESE 77mi, 124km
Updated: Thu, 19-Jul-2018 10:53am EDT
Clear
Clear
 Wind from calm
Wind: Calm
Temperature: 77°F , 25°C
Dew Point: 55°F , 13°C
Humidity: 47%
Barometer: 30.10 inHg , 1019.3 hPa
Clouds: Clear
Visibility: 10 miles , 16 km
2018/07/19 14:53 KSMQ 191453Z AUTO 00000KT 10SM CLR 25/13 A3010 RMK AO2 SLP191 T02500133 51010
 
KLNS - Lancaster, Pennsylvania, USA
Distance from station: SSW 79mi, 127km
Updated: Thu, 19-Jul-2018 10:53am EDT
Clear
Clear
 Wind from E
Wind: E 6 mph , 9 km/h
Temperature: 75°F , 24°C
Dew Point: 52°F , 11°C
Humidity: 44%
Barometer: 30.13 inHg , 1020.3 hPa
Clouds: Clear
Visibility: 10 miles , 16 km
2018/07/19 14:53 KLNS 191453Z 08005KT 10SM CLR 24/11 A3013 RMK AO2 SLP198 T02440106 51006
KELM - Elmira, New York, USA
Distance from station: NW 82mi, 132km
Updated: Thu, 19-Jul-2018 10:53am EDT
Clear
Clear
 Wind from S
Wind: S 5 mph , 7 km/h
Temperature: 72°F , 22°C
Dew Point: 50°F , 10°C
Humidity: 47%
Barometer: 30.14 inHg , 1020.7 hPa
Clouds: Clear
Visibility: 10 miles , 16 km
2018/07/19 14:53 KELM 191453Z 18004KT 10SM CLR 22/10 A3014 RMK AO2 SLP202 T02170100 58004
 
KLOM - Philly Wings F, Pennsylvania, USA
Distance from station: SSE 82mi, 132km
Updated: Thu, 19-Jul-2018 10:55am EDT
Clear
Clear
 Wind from calm
Wind: Calm
Temperature: 72°F , 22°C
Dew Point: 55°F , 13°C
Humidity: 57%
Barometer: 30.13 inHg , 1020.3 hPa
Clouds: Clear
Visibility: 10 miles , 16 km
2018/07/19 14:55 KLOM 191455Z AUTO 00000KT 10SM CLR 22/13 A3013 RMK AO1
KMMU - Morristown Muni, New Jersey, USA
Distance from station: ESE 83mi, 134km
Updated: Thu, 19-Jul-2018 10:45am EDT
Clear
Clear
 Wind from ENE
Wind: ENE 6 mph , 9 km/h
Temperature: 75°F , 24°C
Dew Point: 55°F , 13°C
Humidity: 50%
Barometer: 30.12 inHg , 1020 hPa
Clouds: Clear
Visibility: 10 miles , 16 km
2018/07/19 14:45 KMMU 191445Z 06005KT 10SM SKC 24/13 A3012

Metar display script from Saratoga-Weather.org


Cairn Terrier Rescue
teddybearweather.com 2009-2018